sensor_id;sensor_type;location;lat;lon;timestamp;temperature;humidity
16441;DHT22;8330;-33.858;151.184;2023-07-31T00:01:38;19.30;95.70
16441;DHT22;8330;-33.858;151.184;2023-07-31T00:04:10;19.30;95.70
16441;DHT22;8330;-33.858;151.184;2023-07-31T00:06:41;19.40;95.00
16441;DHT22;8330;-33.858;151.184;2023-07-31T00:09:12;19.50;95.30
16441;DHT22;8330;-33.858;151.184;2023-07-31T00:11:44;19.60;94.60
16441;DHT22;8330;-33.858;151.184;2023-07-31T00:14:20;19.60;93.80
16441;DHT22;8330;-33.858;151.184;2023-07-31T00:16:51;19.60;93.00
16441;DHT22;8330;-33.858;151.184;2023-07-31T00:19:23;19.60;93.40
16441;DHT22;8330;-33.858;151.184;2023-07-31T00:21:55;19.60;93.20
16441;DHT22;8330;-33.858;151.184;2023-07-31T00:24:25;19.70;93.20
16441;DHT22;8330;-33.858;151.184;2023-07-31T00:26:56;19.80;92.80
16441;DHT22;8330;-33.858;151.184;2023-07-31T00:29:29;19.80;91.90
16441;DHT22;8330;-33.858;151.184;2023-07-31T00:32:00;19.80;91.60
16441;DHT22;8330;-33.858;151.184;2023-07-31T00:34:31;19.80;92.00
16441;DHT22;8330;-33.858;151.184;2023-07-31T00:37:02;19.80;92.00
16441;DHT22;8330;-33.858;151.184;2023-07-31T00:39:35;19.80;91.70
16441;DHT22;8330;-33.858;151.184;2023-07-31T00:42:06;20.00;91.60
16441;DHT22;8330;-33.858;151.184;2023-07-31T00:44:39;20.00;90.30
16441;DHT22;8330;-33.858;151.184;2023-07-31T00:47:11;20.00;90.80
16441;DHT22;8330;-33.858;151.184;2023-07-31T00:49:42;20.00;90.70
16441;DHT22;8330;-33.858;151.184;2023-07-31T00:52:12;20.10;90.30
16441;DHT22;8330;-33.858;151.184;2023-07-31T00:54:43;20.10;90.40
16441;DHT22;8330;-33.858;151.184;2023-07-31T00:57:15;20.30;88.70
16441;DHT22;8330;-33.858;151.184;2023-07-31T00:59:51;20.20;88.80
16441;DHT22;8330;-33.858;151.184;2023-07-31T01:02:22;20.30;88.90
16441;DHT22;8330;-33.858;151.184;2023-07-31T01:04:54;20.40;88.50
16441;DHT22;8330;-33.858;151.184;2023-07-31T01:07:30;20.30;87.10
16441;DHT22;8330;-33.858;151.184;2023-07-31T01:10:07;20.30;88.80
16441;DHT22;8330;-33.858;151.184;2023-07-31T01:12:40;20.40;86.60
16441;DHT22;8330;-33.858;151.184;2023-07-31T01:15:15;20.50;85.50
16441;DHT22;8330;-33.858;151.184;2023-07-31T01:17:46;20.60;85.20
16441;DHT22;8330;-33.858;151.184;2023-07-31T01:20:20;20.50;85.30
16441;DHT22;8330;-33.858;151.184;2023-07-31T01:26:21;20.50;83.90
16441;DHT22;8330;-33.858;151.184;2023-07-31T01:28:59;20.60;84.20
16441;DHT22;8330;-33.858;151.184;2023-07-31T01:31:33;20.70;83.50
16441;DHT22;8330;-33.858;151.184;2023-07-31T01:34:07;20.80;84.90
16441;DHT22;8330;-33.858;151.184;2023-07-31T01:36:39;20.80;82.60
16441;DHT22;8330;-33.858;151.184;2023-07-31T01:39:10;20.70;83.40
16441;DHT22;8330;-33.858;151.184;2023-07-31T01:41:45;20.80;82.40
16441;DHT22;8330;-33.858;151.184;2023-07-31T01:44:16;20.80;81.10
16441;DHT22;8330;-33.858;151.184;2023-07-31T01:46:47;20.90;80.30
16441;DHT22;8330;-33.858;151.184;2023-07-31T01:49:18;20.90;81.40
16441;DHT22;8330;-33.858;151.184;2023-07-31T01:51:50;20.90;81.60
16441;DHT22;8330;-33.858;151.184;2023-07-31T01:54:21;21.10;79.90
16441;DHT22;8330;-33.858;151.184;2023-07-31T01:56:55;21.10;79.50
16441;DHT22;8330;-33.858;151.184;2023-07-31T01:59:27;21.30;80.60
16441;DHT22;8330;-33.858;151.184;2023-07-31T02:01:57;21.30;79.10
16441;DHT22;8330;-33.858;151.184;2023-07-31T02:04:28;21.40;78.10
16441;DHT22;8330;-33.858;151.184;2023-07-31T02:06:59;21.40;79.80
16441;DHT22;8330;-33.858;151.184;2023-07-31T02:09:30;21.50;79.10
16441;DHT22;8330;-33.858;151.184;2023-07-31T02:12:04;21.60;78.90
16441;DHT22;8330;-33.858;151.184;2023-07-31T02:14:36;21.60;76.40
16441;DHT22;8330;-33.858;151.184;2023-07-31T02:17:07;21.60;75.60
16441;DHT22;8330;-33.858;151.184;2023-07-31T02:19:38;21.60;75.50
16441;DHT22;8330;-33.858;151.184;2023-07-31T02:22:09;21.60;76.00
16441;DHT22;8330;-33.858;151.184;2023-07-31T02:24:40;21.80;77.10
16441;DHT22;8330;-33.858;151.184;2023-07-31T02:27:12;21.90;75.90
16441;DHT22;8330;-33.858;151.184;2023-07-31T02:29:43;22.00;76.00
16441;DHT22;8330;-33.858;151.184;2023-07-31T02:32:14;22.00;73.50
16441;DHT22;8330;-33.858;151.184;2023-07-31T02:34:45;21.90;74.20
16441;DHT22;8330;-33.858;151.184;2023-07-31T02:37:19;21.90;71.70
16441;DHT22;8330;-33.858;151.184;2023-07-31T02:39:49;21.90;73.00
16441;DHT22;8330;-33.858;151.184;2023-07-31T02:42:24;22.00;72.40
16441;DHT22;8330;-33.858;151.184;2023-07-31T02:44:55;22.10;72.40
16441;DHT22;8330;-33.858;151.184;2023-07-31T02:47:26;22.20;70.70
16441;DHT22;8330;-33.858;151.184;2023-07-31T02:49:57;22.10;70.30
16441;DHT22;8330;-33.858;151.184;2023-07-31T02:52:28;22.10;70.90
16441;DHT22;8330;-33.858;151.184;2023-07-31T02:54:59;22.20;71.70
16441;DHT22;8330;-33.858;151.184;2023-07-31T02:57:32;22.20;70.40
16441;DHT22;8330;-33.858;151.184;2023-07-31T03:00:04;22.40;68.20
16441;DHT22;8330;-33.858;151.184;2023-07-31T03:02:35;22.30;68.80
16441;DHT22;8330;-33.858;151.184;2023-07-31T03:05:06;22.40;70.10
16441;DHT22;8330;-33.858;151.184;2023-07-31T03:07:37;22.40;69.60
16441;DHT22;8330;-33.858;151.184;2023-07-31T03:10:10;22.40;68.20
16441;DHT22;8330;-33.858;151.184;2023-07-31T03:12:47;22.40;68.30
16441;DHT22;8330;-33.858;151.184;2023-07-31T03:15:18;22.50;68.50
16441;DHT22;8330;-33.858;151.184;2023-07-31T03:17:49;22.50;69.10
16441;DHT22;8330;-33.858;151.184;2023-07-31T03:20:20;22.50;68.10
16441;DHT22;8330;-33.858;151.184;2023-07-31T03:22:54;22.60;67.10
16441;DHT22;8330;-33.858;151.184;2023-07-31T03:25:25;22.60;65.90
16441;DHT22;8330;-33.858;151.184;2023-07-31T03:27:58;22.40;65.50
16441;DHT22;8330;-33.858;151.184;2023-07-31T03:30:30;22.50;66.40
16441;DHT22;8330;-33.858;151.184;2023-07-31T03:33:00;22.40;66.90
16441;DHT22;8330;-33.858;151.184;2023-07-31T03:35:31;22.50;67.90
16441;DHT22;8330;-33.858;151.184;2023-07-31T03:38:02;22.50;67.30
16441;DHT22;8330;-33.858;151.184;2023-07-31T03:40:33;22.40;66.00
16441;DHT22;8330;-33.858;151.184;2023-07-31T03:43:06;22.40;66.30
16441;DHT22;8330;-33.858;151.184;2023-07-31T03:45:39;22.40;65.20
16441;DHT22;8330;-33.858;151.184;2023-07-31T03:48:10;22.40;65.60
16441;DHT22;8330;-33.858;151.184;2023-07-31T03:50:40;22.40;66.60
16441;DHT22;8330;-33.858;151.184;2023-07-31T03:53:12;22.50;66.00
16441;DHT22;8330;-33.858;151.184;2023-07-31T03:55:43;22.50;65.50
16441;DHT22;8330;-33.858;151.184;2023-07-31T03:58:16;22.60;66.20
16441;DHT22;8330;-33.858;151.184;2023-07-31T04:00:47;22.60;65.00
16441;DHT22;8330;-33.858;151.184;2023-07-31T04:03:18;22.60;64.50
16441;DHT22;8330;-33.858;151.184;2023-07-31T04:05:49;22.40;65.80
16441;DHT22;8330;-33.858;151.184;2023-07-31T04:08:21;22.40;64.90
16441;DHT22;8330;-33.858;151.184;2023-07-31T04:10:52;22.40;65.80
16441;DHT22;8330;-33.858;151.184;2023-07-31T04:13:29;22.50;65.20
16441;DHT22;8330;-33.858;151.184;2023-07-31T04:16:03;22.50;65.60
16441;DHT22;8330;-33.858;151.184;2023-07-31T04:18:37;22.40;65.00
16441;DHT22;8330;-33.858;151.184;2023-07-31T04:21:08;22.50;64.20
16441;DHT22;8330;-33.858;151.184;2023-07-31T04:23:41;22.40;64.70
16441;DHT22;8330;-33.858;151.184;2023-07-31T04:26:13;22.40;64.10
16441;DHT22;8330;-33.858;151.184;2023-07-31T04:28:45;22.40;64.40
16441;DHT22;8330;-33.858;151.184;2023-07-31T04:31:16;22.40;63.80
16441;DHT22;8330;-33.858;151.184;2023-07-31T04:33:48;22.50;64.70
16441;DHT22;8330;-33.858;151.184;2023-07-31T04:36:20;22.50;62.90
16441;DHT22;8330;-33.858;151.184;2023-07-31T04:38:51;22.40;63.90
16441;DHT22;8330;-33.858;151.184;2023-07-31T04:41:23;22.40;64.50
16441;DHT22;8330;-33.858;151.184;2023-07-31T04:43:58;22.50;64.50
16441;DHT22;8330;-33.858;151.184;2023-07-31T04:46:30;22.50;64.00
16441;DHT22;8330;-33.858;151.184;2023-07-31T04:49:02;22.50;64.70
16441;DHT22;8330;-33.858;151.184;2023-07-31T04:51:33;22.60;64.30
16441;DHT22;8330;-33.858;151.184;2023-07-31T04:54:05;22.60;65.10
16441;DHT22;8330;-33.858;151.184;2023-07-31T04:56:37;22.70;63.90
16441;DHT22;8330;-33.858;151.184;2023-07-31T04:59:12;22.60;62.90
16441;DHT22;8330;-33.858;151.184;2023-07-31T05:01:43;22.70;62.90
16441;DHT22;8330;-33.858;151.184;2023-07-31T05:04:16;22.70;63.60
16441;DHT22;8330;-33.858;151.184;2023-07-31T05:06:47;22.70;63.20
16441;DHT22;8330;-33.858;151.184;2023-07-31T05:09:19;22.70;63.10
16441;DHT22;8330;-33.858;151.184;2023-07-31T05:11:51;22.70;61.60
16441;DHT22;8330;-33.858;151.184;2023-07-31T05:14:25;22.80;61.50
16441;DHT22;8330;-33.858;151.184;2023-07-31T05:16:56;22.80;62.20
16441;DHT22;8330;-33.858;151.184;2023-07-31T05:19:28;22.80;61.50
16441;DHT22;8330;-33.858;151.184;2023-07-31T05:22:00;22.80;62.00
16441;DHT22;8330;-33.858;151.184;2023-07-31T05:24:31;22.70;62.60
16441;DHT22;8330;-33.858;151.184;2023-07-31T05:27:03;22.80;62.50
16441;DHT22;8330;-33.858;151.184;2023-07-31T05:29:36;22.90;63.10
16441;DHT22;8330;-33.858;151.184;2023-07-31T05:32:08;22.90;62.20
16441;DHT22;8330;-33.858;151.184;2023-07-31T05:34:40;22.90;61.00
16441;DHT22;8330;-33.858;151.184;2023-07-31T05:37:12;22.90;62.20
16441;DHT22;8330;-33.858;151.184;2023-07-31T05:39:44;22.90;59.60
16441;DHT22;8330;-33.858;151.184;2023-07-31T05:42:15;22.90;60.60
16441;DHT22;8330;-33.858;151.184;2023-07-31T05:44:50;22.80;60.40
16441;DHT22;8330;-33.858;151.184;2023-07-31T05:47:22;22.80;61.20
16441;DHT22;8330;-33.858;151.184;2023-07-31T05:49:53;22.80;60.50
16441;DHT22;8330;-33.858;151.184;2023-07-31T05:52:25;22.80;61.30
16441;DHT22;8330;-33.858;151.184;2023-07-31T05:54:57;22.90;60.10
16441;DHT22;8330;-33.858;151.184;2023-07-31T05:57:28;22.90;59.90
16441;DHT22;8330;-33.858;151.184;2023-07-31T06:00:01;23.00;60.80
16441;DHT22;8330;-33.858;151.184;2023-07-31T06:02:32;23.00;61.20
16441;DHT22;8330;-33.858;151.184;2023-07-31T06:05:06;23.10;60.70
16441;DHT22;8330;-33.858;151.184;2023-07-31T06:07:38;23.10;61.10
16441;DHT22;8330;-33.858;151.184;2023-07-31T06:10:09;23.00;61.60
16441;DHT22;8330;-33.858;151.184;2023-07-31T06:12:41;23.10;61.00
16441;DHT22;8330;-33.858;151.184;2023-07-31T06:15:15;23.20;60.10
16441;DHT22;8330;-33.858;151.184;2023-07-31T06:17:47;23.20;59.40
16441;DHT22;8330;-33.858;151.184;2023-07-31T06:20:18;23.20;59.80
16441;DHT22;8330;-33.858;151.184;2023-07-31T06:22:50;23.30;60.50
16441;DHT22;8330;-33.858;151.184;2023-07-31T06:25:21;23.40;59.40
16441;DHT22;8330;-33.858;151.184;2023-07-31T06:27:52;23.50;59.20
16441;DHT22;8330;-33.858;151.184;2023-07-31T06:30:27;23.60;59.80
16441;DHT22;8330;-33.858;151.184;2023-07-31T06:32:58;23.70;60.10
16441;DHT22;8330;-33.858;151.184;2023-07-31T06:35:29;23.70;59.80
16441;DHT22;8330;-33.858;151.184;2023-07-31T06:38:01;23.80;60.10
16441;DHT22;8330;-33.858;151.184;2023-07-31T06:40:32;23.60;59.90
16441;DHT22;8330;-33.858;151.184;2023-07-31T06:43:04;23.40;59.90
16441;DHT22;8330;-33.858;151.184;2023-07-31T06:45:39;23.30;60.40
16441;DHT22;8330;-33.858;151.184;2023-07-31T06:48:11;23.20;60.60
16441;DHT22;8330;-33.858;151.184;2023-07-31T06:50:43;23.20;60.70
16441;DHT22;8330;-33.858;151.184;2023-07-31T06:53:18;23.00;61.40
16441;DHT22;8330;-33.858;151.184;2023-07-31T06:55:49;22.90;61.50
16441;DHT22;8330;-33.858;151.184;2023-07-31T06:58:20;22.80;62.00
16441;DHT22;8330;-33.858;151.184;2023-07-31T07:00:55;22.70;62.50
16441;DHT22;8330;-33.858;151.184;2023-07-31T07:03:27;22.50;63.60
16441;DHT22;8330;-33.858;151.184;2023-07-31T07:06:00;22.40;64.20
16441;DHT22;8330;-33.858;151.184;2023-07-31T07:08:31;22.30;64.80
16441;DHT22;8330;-33.858;151.184;2023-07-31T07:11:01;22.20;65.70
16441;DHT22;8330;-33.858;151.184;2023-07-31T07:13:32;22.00;65.80
16441;DHT22;8330;-33.858;151.184;2023-07-31T07:16:05;21.90;66.00
16441;DHT22;8330;-33.858;151.184;2023-07-31T07:18:36;21.90;66.40
16441;DHT22;8330;-33.858;151.184;2023-07-31T07:21:07;21.70;67.00
16441;DHT22;8330;-33.858;151.184;2023-07-31T07:23:42;21.60;66.30
16441;DHT22;8330;-33.858;151.184;2023-07-31T07:26:13;21.50;66.90
16441;DHT22;8330;-33.858;151.184;2023-07-31T07:28:44;21.40;68.40
16441;DHT22;8330;-33.858;151.184;2023-07-31T07:31:17;21.30;69.00
16441;DHT22;8330;-33.858;151.184;2023-07-31T07:33:49;21.20;69.00
16441;DHT22;8330;-33.858;151.184;2023-07-31T07:36:20;21.10;69.70
16441;DHT22;8330;-33.858;151.184;2023-07-31T07:38:52;21.00;71.30
16441;DHT22;8330;-33.858;151.184;2023-07-31T07:41:24;21.00;71.70
16441;DHT22;8330;-33.858;151.184;2023-07-31T07:43:56;20.90;72.30
16441;DHT22;8330;-33.858;151.184;2023-07-31T07:46:29;20.80;74.00
16441;DHT22;8330;-33.858;151.184;2023-07-31T07:49:00;20.80;74.70
16441;DHT22;8330;-33.858;151.184;2023-07-31T07:51:32;20.70;75.80
16441;DHT22;8330;-33.858;151.184;2023-07-31T07:54:03;20.60;74.70
16441;DHT22;8330;-33.858;151.184;2023-07-31T07:56:34;20.50;75.20
16441;DHT22;8330;-33.858;151.184;2023-07-31T07:59:05;20.50;76.90
16441;DHT22;8330;-33.858;151.184;2023-07-31T08:01:38;20.40;78.50
16441;DHT22;8330;-33.858;151.184;2023-07-31T08:04:09;20.30;79.70
16441;DHT22;8330;-33.858;151.184;2023-07-31T08:06:40;20.20;78.60
16441;DHT22;8330;-33.858;151.184;2023-07-31T08:09:11;20.20;78.30
16441;DHT22;8330;-33.858;151.184;2023-07-31T08:11:42;20.10;78.00
16441;DHT22;8330;-33.858;151.184;2023-07-31T08:14:13;20.10;76.40
16441;DHT22;8330;-33.858;151.184;2023-07-31T08:16:47;20.10;80.20
16441;DHT22;8330;-33.858;151.184;2023-07-31T08:19:18;20.10;82.20
16441;DHT22;8330;-33.858;151.184;2023-07-31T08:21:49;20.10;80.30
16441;DHT22;8330;-33.858;151.184;2023-07-31T08:24:20;20.00;79.60
16441;DHT22;8330;-33.858;151.184;2023-07-31T08:26:51;20.00;78.70
16441;DHT22;8330;-33.858;151.184;2023-07-31T08:29:21;20.00;80.60
16441;DHT22;8330;-33.858;151.184;2023-07-31T08:31:55;20.00;83.90
16441;DHT22;8330;-33.858;151.184;2023-07-31T08:34:26;19.90;86.60
16441;DHT22;8330;-33.858;151.184;2023-07-31T08:36:58;19.90;85.40
16441;DHT22;8330;-33.858;151.184;2023-07-31T08:39:29;19.90;84.90
16441;DHT22;8330;-33.858;151.184;2023-07-31T08:42:00;19.80;83.50
16441;DHT22;8330;-33.858;151.184;2023-07-31T08:44:30;19.80;85.00
16441;DHT22;8330;-33.858;151.184;2023-07-31T08:47:07;19.70;86.10
16441;DHT22;8330;-33.858;151.184;2023-07-31T08:49:38;19.70;85.70
16441;DHT22;8330;-33.858;151.184;2023-07-31T08:52:11;19.60;84.00
16441;DHT22;8330;-33.858;151.184;2023-07-31T08:54:44;19.60;84.00
16441;DHT22;8330;-33.858;151.184;2023-07-31T08:57:16;19.60;86.10
16441;DHT22;8330;-33.858;151.184;2023-07-31T08:59:48;19.60;87.10
16441;DHT22;8330;-33.858;151.184;2023-07-31T09:02:24;19.50;86.00
16441;DHT22;8330;-33.858;151.184;2023-07-31T09:04:58;19.50;86.40
16441;DHT22;8330;-33.858;151.184;2023-07-31T09:07:31;19.40;88.30
16441;DHT22;8330;-33.858;151.184;2023-07-31T09:10:03;19.40;88.90
16441;DHT22;8330;-33.858;151.184;2023-07-31T09:12:35;19.40;88.70
16441;DHT22;8330;-33.858;151.184;2023-07-31T09:15:07;19.40;87.70
16441;DHT22;8330;-33.858;151.184;2023-07-31T09:17:41;19.40;86.80
16441;DHT22;8330;-33.858;151.184;2023-07-31T09:20:17;19.40;88.70
16441;DHT22;8330;-33.858;151.184;2023-07-31T09:22:48;19.30;87.60
16441;DHT22;8330;-33.858;151.184;2023-07-31T09:25:20;19.30;89.60
16441;DHT22;8330;-33.858;151.184;2023-07-31T09:27:53;19.30;89.80
16441;DHT22;8330;-33.858;151.184;2023-07-31T09:30:25;19.30;90.60
16441;DHT22;8330;-33.858;151.184;2023-07-31T09:33:05;19.30;91.60
16441;DHT22;8330;-33.858;151.184;2023-07-31T09:35:36;19.30;91.80
16441;DHT22;8330;-33.858;151.184;2023-07-31T09:38:10;19.20;92.00
16441;DHT22;8330;-33.858;151.184;2023-07-31T09:40:41;19.20;92.30
16441;DHT22;8330;-33.858;151.184;2023-07-31T09:43:17;19.10;92.60
16441;DHT22;8330;-33.858;151.184;2023-07-31T09:45:52;19.10;93.30
16441;DHT22;8330;-33.858;151.184;2023-07-31T09:48:28;19.10;94.20
16441;DHT22;8330;-33.858;151.184;2023-07-31T09:51:05;19.00;95.40
16441;DHT22;8330;-33.858;151.184;2023-07-31T09:53:37;19.00;96.30
16441;DHT22;8330;-33.858;151.184;2023-07-31T09:56:09;18.90;96.00
16441;DHT22;8330;-33.858;151.184;2023-07-31T09:58:43;18.90;95.50
16441;DHT22;8330;-33.858;151.184;2023-07-31T10:01:15;18.90;95.50
16441;DHT22;8330;-33.858;151.184;2023-07-31T10:03:50;18.80;94.00
16441;DHT22;8330;-33.858;151.184;2023-07-31T10:06:22;18.80;94.80
16441;DHT22;8330;-33.858;151.184;2023-07-31T10:08:55;18.80;93.70
16441;DHT22;8330;-33.858;151.184;2023-07-31T10:11:28;18.80;93.40
16441;DHT22;8330;-33.858;151.184;2023-07-31T10:14:06;18.70;93.40
16441;DHT22;8330;-33.858;151.184;2023-07-31T10:16:39;18.70;93.10
16441;DHT22;8330;-33.858;151.184;2023-07-31T10:19:13;18.70;94.00
16441;DHT22;8330;-33.858;151.184;2023-07-31T10:21:44;18.70;94.50
16441;DHT22;8330;-33.858;151.184;2023-07-31T10:24:17;18.70;95.30
16441;DHT22;8330;-33.858;151.184;2023-07-31T10:26:50;18.60;95.60
16441;DHT22;8330;-33.858;151.184;2023-07-31T10:29:23;18.60;96.10
16441;DHT22;8330;-33.858;151.184;2023-07-31T10:31:57;18.60;96.00
16441;DHT22;8330;-33.858;151.184;2023-07-31T10:34:32;18.50;96.20
16441;DHT22;8330;-33.858;151.184;2023-07-31T10:37:23;18.50;96.30
16441;DHT22;8330;-33.858;151.184;2023-07-31T10:39:58;18.40;96.10
16441;DHT22;8330;-33.858;151.184;2023-07-31T10:42:34;18.40;96.20
16441;DHT22;8330;-33.858;151.184;2023-07-31T10:45:08;18.30;96.40
16441;DHT22;8330;-33.858;151.184;2023-07-31T10:47:39;18.30;95.80
16441;DHT22;8330;-33.858;151.184;2023-07-31T10:50:21;18.20;93.80
16441;DHT22;8330;-33.858;151.184;2023-07-31T10:52:53;18.20;94.30
16441;DHT22;8330;-33.858;151.184;2023-07-31T10:55:29;18.20;94.50
16441;DHT22;8330;-33.858;151.184;2023-07-31T10:58:06;18.20;94.60
16441;DHT22;8330;-33.858;151.184;2023-07-31T11:00:38;18.20;95.20
16441;DHT22;8330;-33.858;151.184;2023-07-31T11:03:10;18.10;97.10
16441;DHT22;8330;-33.858;151.184;2023-07-31T11:05:50;18.10;99.00
16441;DHT22;8330;-33.858;151.184;2023-07-31T11:08:22;18.00;99.90
16441;DHT22;8330;-33.858;151.184;2023-07-31T11:11:08;18.00;99.90
16441;DHT22;8330;-33.858;151.184;2023-07-31T11:16:59;17.90;99.90
16441;DHT22;8330;-33.858;151.184;2023-07-31T11:19:30;17.70;99.90
16441;DHT22;8330;-33.858;151.184;2023-07-31T11:22:03;17.50;99.90
16441;DHT22;8330;-33.858;151.184;2023-07-31T11:24:35;17.40;99.90
16441;DHT22;8330;-33.858;151.184;2023-07-31T11:27:08;17.40;99.90
16441;DHT22;8330;-33.858;151.184;2023-07-31T11:29:39;17.40;99.90
16441;DHT22;8330;-33.858;151.184;2023-07-31T11:32:17;17.40;99.90
16441;DHT22;8330;-33.858;151.184;2023-07-31T11:34:54;17.40;99.90
16441;DHT22;8330;-33.858;151.184;2023-07-31T11:37:39;17.40;99.90
16441;DHT22;8330;-33.858;151.184;2023-07-31T11:40:11;17.40;99.90
16441;DHT22;8330;-33.858;151.184;2023-07-31T11:42:42;17.40;99.90
16441;DHT22;8330;-33.858;151.184;2023-07-31T11:45:14;17.50;99.90
16441;DHT22;8330;-33.858;151.184;2023-07-31T11:47:45;17.50;99.90
16441;DHT22;8330;-33.858;151.184;2023-07-31T11:50:18;17.40;99.90
16441;DHT22;8330;-33.858;151.184;2023-07-31T11:52:53;17.40;99.90
16441;DHT22;8330;-33.858;151.184;2023-07-31T11:55:27;17.40;99.90
16441;DHT22;8330;-33.858;151.184;2023-07-31T11:57:59;17.40;99.90
16441;DHT22;8330;-33.858;151.184;2023-07-31T12:00:31;17.40;99.90
16441;DHT22;8330;-33.858;151.184;2023-07-31T12:03:05;17.30;99.90
16441;DHT22;8330;-33.858;151.184;2023-07-31T12:05:42;17.30;99.90
16441;DHT22;8330;-33.858;151.184;2023-07-31T12:08:17;17.40;99.90
16441;DHT22;8330;-33.858;151.184;2023-07-31T12:11:04;17.40;99.90
16441;DHT22;8330;-33.858;151.184;2023-07-31T12:13:35;17.30;99.90
16441;DHT22;8330;-33.858;151.184;2023-07-31T12:16:15;17.30;99.90
16441;DHT22;8330;-33.858;151.184;2023-07-31T12:18:52;17.30;99.90
16441;DHT22;8330;-33.858;151.184;2023-07-31T12:21:23;17.30;99.90
16441;DHT22;8330;-33.858;151.184;2023-07-31T12:23:56;17.30;99.90
16441;DHT22;8330;-33.858;151.184;2023-07-31T12:26:35;17.20;99.90
16441;DHT22;8330;-33.858;151.184;2023-07-31T12:29:08;17.20;99.90
16441;DHT22;8330;-33.858;151.184;2023-07-31T12:31:42;17.10;99.90
16441;DHT22;8330;-33.858;151.184;2023-07-31T12:34:17;17.00;99.90
16441;DHT22;8330;-33.858;151.184;2023-07-31T12:36:54;17.00;99.90
16441;DHT22;8330;-33.858;151.184;2023-07-31T12:39:27;17.00;99.90
16441;DHT22;8330;-33.858;151.184;2023-07-31T12:41:58;17.00;99.90
16441;DHT22;8330;-33.858;151.184;2023-07-31T12:44:32;16.90;99.90
16441;DHT22;8330;-33.858;151.184;2023-07-31T12:47:10;16.90;99.90
16441;DHT22;8330;-33.858;151.184;2023-07-31T12:49:42;16.90;99.90
16441;DHT22;8330;-33.858;151.184;2023-07-31T12:52:13;16.80;99.90
16441;DHT22;8330;-33.858;151.184;2023-07-31T12:54:48;16.80;99.90
16441;DHT22;8330;-33.858;151.184;2023-07-31T12:57:22;16.80;99.90
16441;DHT22;8330;-33.858;151.184;2023-07-31T12:59:55;16.80;99.90
16441;DHT22;8330;-33.858;151.184;2023-07-31T13:02:26;16.80;99.90
16441;DHT22;8330;-33.858;151.184;2023-07-31T13:04:58;16.80;99.90
16441;DHT22;8330;-33.858;151.184;2023-07-31T13:07:30;16.70;99.90
16441;DHT22;8330;-33.858;151.184;2023-07-31T13:10:04;16.70;99.90
16441;DHT22;8330;-33.858;151.184;2023-07-31T13:12:36;16.70;99.90
16441;DHT22;8330;-33.858;151.184;2023-07-31T13:15:08;16.70;99.90
16441;DHT22;8330;-33.858;151.184;2023-07-31T13:17:39;16.60;99.90
16441;DHT22;8330;-33.858;151.184;2023-07-31T13:20:10;16.60;99.90
16441;DHT22;8330;-33.858;151.184;2023-07-31T13:22:42;16.60;99.90
16441;DHT22;8330;-33.858;151.184;2023-07-31T13:25:17;16.60;99.90
16441;DHT22;8330;-33.858;151.184;2023-07-31T13:27:49;16.50;99.90
16441;DHT22;8330;-33.858;151.184;2023-07-31T13:30:20;16.50;99.90
16441;DHT22;8330;-33.858;151.184;2023-07-31T13:32:51;16.40;99.90
16441;DHT22;8330;-33.858;151.184;2023-07-31T13:35:22;16.30;99.90
16441;DHT22;8330;-33.858;151.184;2023-07-31T13:37:53;16.20;99.90
16441;DHT22;8330;-33.858;151.184;2023-07-31T13:40:31;16.20;99.90
16441;DHT22;8330;-33.858;151.184;2023-07-31T13:43:03;16.20;99.90
16441;DHT22;8330;-33.858;151.184;2023-07-31T13:45:35;16.10;99.90
16441;DHT22;8330;-33.858;151.184;2023-07-31T13:48:07;16.10;99.90
16441;DHT22;8330;-33.858;151.184;2023-07-31T13:50:38;16.10;99.90
16441;DHT22;8330;-33.858;151.184;2023-07-31T13:53:09;16.10;99.90
16441;DHT22;8330;-33.858;151.184;2023-07-31T13:58:40;16.00;99.90
16441;DHT22;8330;-33.858;151.184;2023-07-31T14:01:11;16.00;99.90
16441;DHT22;8330;-33.858;151.184;2023-07-31T14:03:44;15.90;99.90
16441;DHT22;8330;-33.858;151.184;2023-07-31T14:06:15;15.90;99.90
16441;DHT22;8330;-33.858;151.184;2023-07-31T14:08:46;15.80;99.90
16441;DHT22;8330;-33.858;151.184;2023-07-31T14:11:23;15.80;99.90
16441;DHT22;8330;-33.858;151.184;2023-07-31T14:13:55;15.80;99.90
16441;DHT22;8330;-33.858;151.184;2023-07-31T14:16:27;15.80;99.90
16441;DHT22;8330;-33.858;151.184;2023-07-31T14:18:59;15.70;99.90
16441;DHT22;8330;-33.858;151.184;2023-07-31T14:21:31;15.80;99.90
16441;DHT22;8330;-33.858;151.184;2023-07-31T14:24:02;15.80;99.90
16441;DHT22;8330;-33.858;151.184;2023-07-31T14:26:37;15.70;99.90
16441;DHT22;8330;-33.858;151.184;2023-07-31T14:29:08;15.60;99.90
16441;DHT22;8330;-33.858;151.184;2023-07-31T14:31:40;15.70;99.90
16441;DHT22;8330;-33.858;151.184;2023-07-31T14:34:11;15.60;99.90
16441;DHT22;8330;-33.858;151.184;2023-07-31T14:36:42;15.50;99.90
16441;DHT22;8330;-33.858;151.184;2023-07-31T14:39:14;15.50;99.90
16441;DHT22;8330;-33.858;151.184;2023-07-31T14:41:48;15.50;99.90
16441;DHT22;8330;-33.858;151.184;2023-07-31T14:44:19;15.50;99.90
16441;DHT22;8330;-33.858;151.184;2023-07-31T14:46:50;15.50;99.90
16441;DHT22;8330;-33.858;151.184;2023-07-31T14:49:22;15.40;99.90
16441;DHT22;8330;-33.858;151.184;2023-07-31T14:51:56;15.30;99.90
16441;DHT22;8330;-33.858;151.184;2023-07-31T14:54:27;15.30;99.90
16441;DHT22;8330;-33.858;151.184;2023-07-31T14:57:02;15.30;99.90
16441;DHT22;8330;-33.858;151.184;2023-07-31T14:59:33;15.40;99.90
16441;DHT22;8330;-33.858;151.184;2023-07-31T15:02:05;15.30;99.90
16441;DHT22;8330;-33.858;151.184;2023-07-31T15:04:37;15.20;99.90
16441;DHT22;8330;-33.858;151.184;2023-07-31T15:07:07;15.20;99.90
16441;DHT22;8330;-33.858;151.184;2023-07-31T15:09:39;15.30;99.90
16441;DHT22;8330;-33.858;151.184;2023-07-31T15:12:12;15.20;99.90
16441;DHT22;8330;-33.858;151.184;2023-07-31T15:14:44;15.20;99.90
16441;DHT22;8330;-33.858;151.184;2023-07-31T15:17:15;15.10;99.90
16441;DHT22;8330;-33.858;151.184;2023-07-31T15:19:47;15.10;99.90
16441;DHT22;8330;-33.858;151.184;2023-07-31T15:22:18;15.00;99.90
16441;DHT22;8330;-33.858;151.184;2023-07-31T15:24:49;14.90;99.90
16441;DHT22;8330;-33.858;151.184;2023-07-31T15:27:24;14.90;99.90
16441;DHT22;8330;-33.858;151.184;2023-07-31T15:29:55;14.90;99.90
16441;DHT22;8330;-33.858;151.184;2023-07-31T15:32:27;15.00;99.90
16441;DHT22;8330;-33.858;151.184;2023-07-31T15:34:58;15.00;99.90
16441;DHT22;8330;-33.858;151.184;2023-07-31T15:37:29;15.10;99.90
16441;DHT22;8330;-33.858;151.184;2023-07-31T15:40:00;15.10;99.90
16441;DHT22;8330;-33.858;151.184;2023-07-31T15:42:33;15.10;99.90
16441;DHT22;8330;-33.858;151.184;2023-07-31T15:45:08;15.20;99.90